Mister Jim — WDJ2018 — position and weather

sailwx.info

Track history (hours):
 
Tides and Currents Weather Stations Pressure Air Temp Water Temp Dewpoint Dewpoint Depression Visibility Wind Speed Wind Dir Waves Ship Positions

Mister Jim

Owner: Coeymans Marine Towing LLC, Coeymans, NY. More information available from US FCC via Universal Licensing System and Coast Guard Vessel Documentation Center.

Last reported at 2017-Dec-16 20:05 UTC. Time now 2017-Dec-17 04:22 UTC.
Position N 40°47' W 073°55'.

Length 27 m; draft 4 m.

Type: Towing. MMSI: 367754450.

Date/timePositionNaut miles runAvg speedWind from/ knotsBaromVisibWave heightAir tempDewpointWater temp
2017-Dec-16 20:05N 40°47' W 073°55'2 4.8
2017-Dec-16 19:37N 40°46' W 073°57'1 3.6
2017-Dec-16 19:25N 40°45' W 073°57'1 3.2
2017-Dec-16 19:00N 40°44' W 073°58'2 3.4
2017-Dec-16 18:30N 40°43' W 073°59'1 2.9
2017-Dec-16 18:00N 40°42' W 074°00'2 3.9
2017-Dec-16 17:30N 40°40' W 074°02'0 0.7
2017-Dec-16 17:00N 40°40' W 074°02'0 0.0
2017-Dec-16 16:30N 40°40' W 074°02'0 0.1
2017-Dec-16 16:00N 40°40' W 074°02'0 0.0
2017-Dec-16 15:30N 40°40' W 074°02'0 0.0
2017-Dec-16 14:57N 40°40' W 074°02'0 0.7
2017-Dec-16 14:30N 40°40' W 074°01'1 1.3
2017-Dec-16 14:00N 40°41' W 074°02'2 4.6
2017-Dec-16 13:30N 40°43' W 074°01'2 4.5
2017-Dec-16 12:59N 40°45' W 074°01'2 3.8
2017-Dec-16 12:29N 40°47' W 073°60'2 3.8
2017-Dec-16 12:00N 40°49' W 073°59'2 4.0
2017-Dec-16 11:30N 40°50' W 073°58'2 4.3
2017-Dec-16 10:59N 40°52' W 073°56'  
2017-Dec-10 20:41N 40°53' W 073°56'1 7.2
2017-Dec-10 20:30N 40°52' W 073°56'4 7.1
2017-Dec-10 19:58N 40°49' W 073°59'3 7.2
2017-Dec-10 19:31N 40°46' W 074°01'3 6.7
2017-Dec-10 19:00N 40°42' W 074°02'2 4.6
2017-Dec-10 18:28N 40°40' W 074°03'0 0.0
2017-Dec-10 17:58N 40°40' W 074°03'1 2.1
2017-Dec-10 17:29N 40°40' W 074°02'1 2.1
2017-Dec-10 17:00N 40°40' W 074°01'0 0.0
2017-Dec-10 16:30N 40°40' W 074°01'1 1.2
2017-Dec-10 16:00N 40°40' W 074°01'4 7.2
2017-Dec-10 15:30N 40°39' W 074°06'1 0.3
2017-Dec-10 13:04N 40°39' W 074°07'1 0.2
2017-Dec-10 10:35N 40°39' W 074°06'1 5.5
2017-Dec-10 10:28N 40°39' W 074°05'2 3.4
2017-Dec-10 09:59N 40°40' W 074°03'0 0.1
2017-Dec-10 09:27N 40°40' W 074°03'2 3.4
2017-Dec-10 09:00N 40°41' W 074°02'3 6.8
2017-Dec-10 08:30N 40°43' W 073°58'3 6.4
2017-Dec-10 07:59N 40°46' W 073°57'2 4.6
2017-Dec-10 07:30N 40°48' W 073°55'  
2017-Dec-07 23:57N 40°48' W 073°54'3 3.9
2017-Dec-07 23:11N 40°46' W 073°57'1 3.5
2017-Dec-07 22:59N 40°45' W 073°58'2 4.0
2017-Dec-07 22:30N 40°43' W 073°58'1 2.6
2017-Dec-07 22:00N 40°42' W 073°59'2 3.5
2017-Dec-07 21:30N 40°41' W 074°01'2 4.0
2017-Dec-07 21:00N 40°40' W 074°03'0 0.5
2017-Dec-07 20:25N 40°40' W 074°03'0 0.1
2017-Dec-07 19:58N 40°40' W 074°03'0 0.0
2017-Dec-07 19:28N 40°40' W 074°03'0 0.1
2017-Dec-07 18:52N 40°40' W 074°03'0 0.0
2017-Dec-07 18:28N 40°40' W 074°03'0 0.3
2017-Dec-07 17:58N 40°40' W 074°03'4 6.4
2017-Dec-07 17:25N 40°37' W 074°02'3 0.6
2017-Dec-07 12:54N 40°34' W 074°01'3 6.4
2017-Dec-07 12:30N 40°36' W 074°03'3 5.8
2017-Dec-07 12:00N 40°39' W 074°04'4 6.9
2017-Dec-07 11:29N 40°38' W 074°09'2 3.6
2017-Dec-07 10:58N 40°39' W 074°11'4 7.3
2017-Dec-07 10:23N 40°39' W 074°06'1 1.1
2017-Dec-07 09:53N 40°39' W 074°05'1 1.6
2017-Dec-07 09:30N 40°39' W 074°04'2 5.1
2017-Dec-07 09:00N 40°40' W 074°01'1 1.1
2017-Dec-07 08:29N 40°40' W 074°01'0 0.0
2017-Dec-07 07:59N 40°40' W 074°01'0 0.0
2017-Dec-07 07:29N 40°40' W 074°01'0 0.0
2017-Dec-07 06:59N 40°40' W 074°01'0 0.0
2017-Dec-07 06:29N 40°40' W 074°01'0 0.0
2017-Dec-07 05:59N 40°40' W 074°01'0 0.0
2017-Dec-07 05:29N 40°40' W 074°01'0 0.0
2017-Dec-07 04:59N 40°40' W 074°01'0 0.0
2017-Dec-07 04:29N 40°40' W 074°01'0 0.0
2017-Dec-07 03:59N 40°40' W 074°01'0 0.0
2017-Dec-07 03:29N 40°40' W 074°01'0 0.0
2017-Dec-07 02:53N 40°40' W 074°01'0 0.0
2017-Dec-07 02:29N 40°40' W 074°01'0 0.0
2017-Dec-07 01:59N 40°40' W 074°01'0 0.0
2017-Dec-07 01:29N 40°40' W 074°01'0 0.0
2017-Dec-07 00:59N 40°40' W 074°01'0 0.0
2017-Dec-07 00:26N 40°40' W 074°01'0 0.0
2017-Dec-06 23:59N 40°40' W 074°01'0 0.0
2017-Dec-06 23:30N 40°40' W 074°01'0 0.0
2017-Dec-06 23:00N 40°40' W 074°01'0 0.0
2017-Dec-06 22:30N 40°40' W 074°01'0 0.0
2017-Dec-06 22:00N 40°40' W 074°01'0 0.0
2017-Dec-06 21:30N 40°40' W 074°01'0 0.0
2017-Dec-06 21:00N 40°40' W 074°01'  
Track history (hours):
 
Tides and Currents Weather Stations Pressure Air Temp Water Temp Dewpoint Dewpoint Depression Visibility Wind Speed Wind Dir Waves Ship Positions

Mister Jim

Owner: Coeymans Marine Towing LLC, Coeymans, NY. More information available from US FCC via Universal Licensing System and Coast Guard Vessel Documentation Center.

Last reported at 2017-Dec-16 20:05 UTC. Time now 2017-Dec-17 04:22 UTC.
Position N 40°47' W 073°55'.

Length 27 m; draft 4 m.

Type: Towing. MMSI: 367754450.

Date/timePositionNaut miles runAvg speedWind from/ knotsBaromVisibWave heightAir tempDewpointWater temp
2017-Dec-16 20:05N 40°47' W 073°55'2 4.8
2017-Dec-16 19:37N 40°46' W 073°57'1 3.6
2017-Dec-16 19:25N 40°45' W 073°57'1 3.2
2017-Dec-16 19:00N 40°44' W 073°58'2 3.4
2017-Dec-16 18:30N 40°43' W 073°59'1 2.9
2017-Dec-16 18:00N 40°42' W 074°00'2 3.9
2017-Dec-16 17:30N 40°40' W 074°02'0 0.7
2017-Dec-16 17:00N 40°40' W 074°02'0 0.0
2017-Dec-16 16:30N 40°40' W 074°02'0 0.1
2017-Dec-16 16:00N 40°40' W 074°02'0 0.0
2017-Dec-16 15:30N 40°40' W 074°02'0 0.0
2017-Dec-16 14:57N 40°40' W 074°02'0 0.7
2017-Dec-16 14:30N 40°40' W 074°01'1 1.3
2017-Dec-16 14:00N 40°41' W 074°02'2 4.6
2017-Dec-16 13:30N 40°43' W 074°01'2 4.5
2017-Dec-16 12:59N 40°45' W 074°01'2 3.8
2017-Dec-16 12:29N 40°47' W 073°60'2 3.8
2017-Dec-16 12:00N 40°49' W 073°59'2 4.0
2017-Dec-16 11:30N 40°50' W 073°58'2 4.3
2017-Dec-16 10:59N 40°52' W 073°56'  
2017-Dec-10 20:41N 40°53' W 073°56'1 7.2
2017-Dec-10 20:30N 40°52' W 073°56'4 7.1
2017-Dec-10 19:58N 40°49' W 073°59'3 7.2
2017-Dec-10 19:31N 40°46' W 074°01'3 6.7
2017-Dec-10 19:00N 40°42' W 074°02'2 4.6
2017-Dec-10 18:28N 40°40' W 074°03'0 0.0
2017-Dec-10 17:58N 40°40' W 074°03'1 2.1
2017-Dec-10 17:29N 40°40' W 074°02'1 2.1
2017-Dec-10 17:00N 40°40' W 074°01'0 0.0
2017-Dec-10 16:30N 40°40' W 074°01'1 1.2
2017-Dec-10 16:00N 40°40' W 074°01'4 7.2
2017-Dec-10 15:30N 40°39' W 074°06'1 0.3
2017-Dec-10 13:04N 40°39' W 074°07'1 0.2
2017-Dec-10 10:35N 40°39' W 074°06'1 5.5
2017-Dec-10 10:28N 40°39' W 074°05'2 3.4
2017-Dec-10 09:59N 40°40' W 074°03'0 0.1
2017-Dec-10 09:27N 40°40' W 074°03'2 3.4
2017-Dec-10 09:00N 40°41' W 074°02'3 6.8
2017-Dec-10 08:30N 40°43' W 073°58'3 6.4
2017-Dec-10 07:59N 40°46' W 073°57'2 4.6
2017-Dec-10 07:30N 40°48' W 073°55'  
2017-Dec-07 23:57N 40°48' W 073°54'3 3.9
2017-Dec-07 23:11N 40°46' W 073°57'1 3.5
2017-Dec-07 22:59N 40°45' W 073°58'2 4.0
2017-Dec-07 22:30N 40°43' W 073°58'1 2.6
2017-Dec-07 22:00N 40°42' W 073°59'2 3.5
2017-Dec-07 21:30N 40°41' W 074°01'2 4.0
2017-Dec-07 21:00N 40°40' W 074°03'0 0.5
2017-Dec-07 20:25N 40°40' W 074°03'0 0.1
2017-Dec-07 19:58N 40°40' W 074°03'0 0.0
2017-Dec-07 19:28N 40°40' W 074°03'0 0.1
2017-Dec-07 18:52N 40°40' W 074°03'0 0.0
2017-Dec-07 18:28N 40°40' W 074°03'0 0.3
2017-Dec-07 17:58N 40°40' W 074°03'4 6.4
2017-Dec-07 17:25N 40°37' W 074°02'3 0.6
2017-Dec-07 12:54N 40°34' W 074°01'3 6.4
2017-Dec-07 12:30N 40°36' W 074°03'3 5.8
2017-Dec-07 12:00N 40°39' W 074°04'4 6.9
2017-Dec-07 11:29N 40°38' W 074°09'2 3.6
2017-Dec-07 10:58N 40°39' W 074°11'4 7.3
2017-Dec-07 10:23N 40°39' W 074°06'1 1.1
2017-Dec-07 09:53N 40°39' W 074°05'1 1.6
2017-Dec-07 09:30N 40°39' W 074°04'2 5.1
2017-Dec-07 09:00N 40°40' W 074°01'1 1.1
2017-Dec-07 08:29N 40°40' W 074°01'0 0.0
2017-Dec-07 07:59N 40°40' W 074°01'0 0.0
2017-Dec-07 07:29N 40°40' W 074°01'0 0.0
2017-Dec-07 06:59N 40°40' W 074°01'0 0.0
2017-Dec-07 06:29N 40°40' W 074°01'0 0.0
2017-Dec-07 05:59N 40°40' W 074°01'0 0.0
2017-Dec-07 05:29N 40°40' W 074°01'0 0.0
2017-Dec-07 04:59N 40°40' W 074°01'0 0.0
2017-Dec-07 04:29N 40°40' W 074°01'0 0.0
2017-Dec-07 03:59N 40°40' W 074°01'0 0.0
2017-Dec-07 03:29N 40°40' W 074°01'0 0.0
2017-Dec-07 02:53N 40°40' W 074°01'0 0.0
2017-Dec-07 02:29N 40°40' W 074°01'0 0.0
2017-Dec-07 01:59N 40°40' W 074°01'0 0.0
2017-Dec-07 01:29N 40°40' W 074°01'0 0.0
2017-Dec-07 00:59N 40°40' W 074°01'0 0.0
2017-Dec-07 00:26N 40°40' W 074°01'0 0.0
2017-Dec-06 23:59N 40°40' W 074°01'0 0.0
2017-Dec-06 23:30N 40°40' W 074°01'0 0.0
2017-Dec-06 23:00N 40°40' W 074°01'0 0.0
2017-Dec-06 22:30N 40°40' W 074°01'0 0.0
2017-Dec-06 22:00N 40°40' W 074°01'0 0.0
2017-Dec-06 21:30N 40°40' W 074°01'0 0.0
2017-Dec-06 21:00N 40°40' W 074°01'  

Dump ship's entire track history